Huvudsida
METAR-TAF:

METAR-TAF

Flygplatser :

Stords flygplats. Sørstokken

Stords, Norge

latitud: 59-48N, longitud: 005-21E, höjd: 49 m

Aktuellt väderrapport

Denna rapport gjordes för 5 timmar och 5 minuter sedan, klockan 17:50 UTC
Vind 9 kt från sydost
Temperatur 5°C
Fuktighet 81%
Tryck 1003 hPa
Sikt 10 km eller mer
Få moln på en höjd av 1100 ft
Spridda moln på en höjd av 1600 ft
Brutna moln på en höjd av 2800 ft

METAR: ENSO 191750Z 14009KT 9999 FEW011 SCT016 BKN028 05/02 Q1003

Tid: 23:55 (22:55 UTC)

Väderprognos

Denna rapport gjordes för 8 timmar och 55 minuter sedan, klockan 14:00 UTC
Prognos gäller från 19 kl. 15 UTC till 19 kl. 18 UTC
Vind 10 kt från ost/sydost
Sikt 10 km eller mer
Få moln på en höjd av 2000 ft, Högtornande cumulus.
Spridda moln på en höjd av 2500 ft
Blir
från 19 kl. 15 UTC till 19 kl. 17 UTC
Vind 15 kt från syd

TAF: ENSO 191400Z 1915/1918 12010KT 9999 FEW020TCU SCT025 BECMG 1915/1917 18015KT

Aktuella väderrapporter och prognoser från 4000 flygplatser (METAR- och TAF-rapporter).

De tillgängliga stationerna syns som gula och röda prickar på kartan.

För musen över prickarna för att se namnen på stationerna.

Klicka sedan för att få väderrapporter och prognoser.

För att ändra kartan: Klicka på de gröna knapparna med ett svart kors på för att zooma in; den gröna knappen med ett streck på för att zooma ut; eller på de gröna pilarna för angränsande kartor.


METAR-TAF: